sensor_id;sensor_type;location;lat;lon;timestamp;P1;durP1;ratioP1;P2;durP2;ratioP2
40705;SDS011;35790;50.790;20.800;2022-07-21T00:02:12;13.08;;;8.85;;
40705;SDS011;35790;50.790;20.800;2022-07-21T00:05:00;16.02;;;9.20;;
40705;SDS011;35790;50.790;20.800;2022-07-21T00:07:48;12.82;;;8.10;;
40705;SDS011;35790;50.790;20.800;2022-07-21T00:10:36;11.35;;;6.12;;
40705;SDS011;35790;50.790;20.800;2022-07-21T00:13:24;9.60;;;6.80;;
40705;SDS011;35790;50.790;20.800;2022-07-21T00:16:11;13.98;;;7.87;;
40705;SDS011;35790;50.790;20.800;2022-07-21T00:19:01;12.53;;;7.75;;
40705;SDS011;35790;50.790;20.800;2022-07-21T00:21:48;15.75;;;9.95;;
40705;SDS011;35790;50.790;20.800;2022-07-21T00:24:36;16.57;;;9.00;;
40705;SDS011;35790;50.790;20.800;2022-07-21T00:27:24;16.10;;;8.55;;
40705;SDS011;35790;50.790;20.800;2022-07-21T00:30:13;14.58;;;8.75;;
40705;SDS011;35790;50.790;20.800;2022-07-21T00:33:01;18.07;;;9.68;;
40705;SDS011;35790;50.790;20.800;2022-07-21T00:35:48;14.55;;;10.00;;
40705;SDS011;35790;50.790;20.800;2022-07-21T00:38:36;15.95;;;9.90;;
40705;SDS011;35790;50.790;20.800;2022-07-21T00:41:25;18.85;;;10.28;;
40705;SDS011;35790;50.790;20.800;2022-07-21T00:44:22;14.75;;;8.55;;
40705;SDS011;35790;50.790;20.800;2022-07-21T00:47:10;13.32;;;8.70;;
40705;SDS011;35790;50.790;20.800;2022-07-21T00:49:58;10.90;;;7.40;;
40705;SDS011;35790;50.790;20.800;2022-07-21T00:52:48;10.75;;;7.00;;
40705;SDS011;35790;50.790;20.800;2022-07-21T00:55:36;9.50;;;6.42;;
40705;SDS011;35790;50.790;20.800;2022-07-21T00:58:23;10.48;;;7.10;;
40705;SDS011;35790;50.790;20.800;2022-07-21T01:01:11;8.18;;;6.67;;
40705;SDS011;35790;50.790;20.800;2022-07-21T01:03:58;12.53;;;8.28;;
40705;SDS011;35790;50.790;20.800;2022-07-21T01:06:46;11.83;;;7.83;;
40705;SDS011;35790;50.790;20.800;2022-07-21T01:09:34;13.83;;;8.00;;
40705;SDS011;35790;50.790;20.800;2022-07-21T01:12:22;11.20;;;6.75;;
40705;SDS011;35790;50.790;20.800;2022-07-21T01:15:10;11.75;;;8.00;;
40705;SDS011;35790;50.790;20.800;2022-07-21T01:17:58;13.95;;;8.78;;
40705;SDS011;35790;50.790;20.800;2022-07-21T01:20:49;12.45;;;8.58;;
40705;SDS011;35790;50.790;20.800;2022-07-21T01:23:38;14.20;;;8.98;;
40705;SDS011;35790;50.790;20.800;2022-07-21T01:26:25;12.10;;;8.55;;
40705;SDS011;35790;50.790;20.800;2022-07-21T01:29:13;14.85;;;7.97;;
40705;SDS011;35790;50.790;20.800;2022-07-21T01:32:01;11.38;;;8.48;;
40705;SDS011;35790;50.790;20.800;2022-07-21T01:34:50;13.38;;;8.75;;
40705;SDS011;35790;50.790;20.800;2022-07-21T01:37:42;17.73;;;10.85;;
40705;SDS011;35790;50.790;20.800;2022-07-21T01:40:27;17.67;;;10.10;;
40705;SDS011;35790;50.790;20.800;2022-07-21T01:43:33;13.53;;;9.93;;
40705;SDS011;35790;50.790;20.800;2022-07-21T01:46:21;14.38;;;10.18;;
40705;SDS011;35790;50.790;20.800;2022-07-21T01:49:09;15.70;;;10.45;;
40705;SDS011;35790;50.790;20.800;2022-07-21T01:51:57;16.15;;;9.43;;
40705;SDS011;35790;50.790;20.800;2022-07-21T01:54:45;14.53;;;9.88;;
40705;SDS011;35790;50.790;20.800;2022-07-21T01:57:33;20.10;;;10.90;;
40705;SDS011;35790;50.790;20.800;2022-07-21T02:00:20;16.95;;;9.95;;
40705;SDS011;35790;50.790;20.800;2022-07-21T02:03:08;17.73;;;10.28;;
40705;SDS011;35790;50.790;20.800;2022-07-21T02:08:51;13.20;;;8.60;;
40705;SDS011;35790;50.790;20.800;2022-07-21T02:11:39;11.12;;;8.60;;
40705;SDS011;35790;50.790;20.800;2022-07-21T02:14:27;13.03;;;9.03;;
40705;SDS011;35790;50.790;20.800;2022-07-21T02:17:14;13.62;;;9.85;;
40705;SDS011;35790;50.790;20.800;2022-07-21T02:20:02;14.90;;;9.35;;
40705;SDS011;35790;50.790;20.800;2022-07-21T02:22:51;13.08;;;9.38;;
40705;SDS011;35790;50.790;20.800;2022-07-21T02:25:39;12.30;;;8.95;;
40705;SDS011;35790;50.790;20.800;2022-07-21T02:28:26;10.80;;;7.90;;
40705;SDS011;35790;50.790;20.800;2022-07-21T02:31:14;15.38;;;8.90;;
40705;SDS011;35790;50.790;20.800;2022-07-21T02:34:01;13.83;;;8.75;;
40705;SDS011;35790;50.790;20.800;2022-07-21T02:36:49;13.50;;;10.23;;
40705;SDS011;35790;50.790;20.800;2022-07-21T02:39:36;13.35;;;9.20;;
40705;SDS011;35790;50.790;20.800;2022-07-21T02:42:24;12.70;;;8.60;;
40705;SDS011;35790;50.790;20.800;2022-07-21T02:45:11;11.28;;;7.70;;
40705;SDS011;35790;50.790;20.800;2022-07-21T02:48:02;8.03;;;7.20;;
40705;SDS011;35790;50.790;20.800;2022-07-21T02:50:51;13.25;;;9.25;;
40705;SDS011;35790;50.790;20.800;2022-07-21T02:53:39;9.78;;;7.87;;
40705;SDS011;35790;50.790;20.800;2022-07-21T02:56:27;9.60;;;7.12;;
40705;SDS011;35790;50.790;20.800;2022-07-21T02:59:14;10.50;;;7.90;;
40705;SDS011;35790;50.790;20.800;2022-07-21T03:02:02;11.40;;;8.33;;
40705;SDS011;35790;50.790;20.800;2022-07-21T03:04:49;16.00;;;8.48;;
40705;SDS011;35790;50.790;20.800;2022-07-21T03:07:36;12.88;;;9.55;;
40705;SDS011;35790;50.790;20.800;2022-07-21T03:10:24;10.00;;;8.00;;
40705;SDS011;35790;50.790;20.800;2022-07-21T03:13:12;13.25;;;9.25;;
40705;SDS011;35790;50.790;20.800;2022-07-21T03:15:59;10.03;;;8.18;;
40705;SDS011;35790;50.790;20.800;2022-07-21T03:18:47;15.53;;;9.65;;
40705;SDS011;35790;50.790;20.800;2022-07-21T03:21:35;12.85;;;9.55;;
40705;SDS011;35790;50.790;20.800;2022-07-21T03:24:23;13.85;;;9.50;;
40705;SDS011;35790;50.790;20.800;2022-07-21T03:27:10;11.35;;;8.85;;
40705;SDS011;35790;50.790;20.800;2022-07-21T03:29:58;10.68;;;8.30;;
40705;SDS011;35790;50.790;20.800;2022-07-21T03:32:46;11.57;;;8.73;;
40705;SDS011;35790;50.790;20.800;2022-07-21T03:35:33;12.20;;;8.65;;
40705;SDS011;35790;50.790;20.800;2022-07-21T03:38:24;14.43;;;9.65;;
40705;SDS011;35790;50.790;20.800;2022-07-21T03:41:12;14.13;;;10.55;;
40705;SDS011;35790;50.790;20.800;2022-07-21T03:43:59;14.95;;;9.68;;
40705;SDS011;35790;50.790;20.800;2022-07-21T03:46:47;15.30;;;8.35;;
40705;SDS011;35790;50.790;20.800;2022-07-21T03:49:35;10.15;;;7.62;;
40705;SDS011;35790;50.790;20.800;2022-07-21T03:52:23;12.75;;;7.40;;
40705;SDS011;35790;50.790;20.800;2022-07-21T03:55:11;10.95;;;7.40;;
40705;SDS011;35790;50.790;20.800;2022-07-21T03:58:02;10.60;;;7.08;;
40705;SDS011;35790;50.790;20.800;2022-07-21T04:00:50;9.03;;;7.05;;
40705;SDS011;35790;50.790;20.800;2022-07-21T04:03:38;9.10;;;7.12;;
40705;SDS011;35790;50.790;20.800;2022-07-21T04:06:25;10.70;;;6.47;;
40705;SDS011;35790;50.790;20.800;2022-07-21T04:09:13;9.58;;;6.90;;
40705;SDS011;35790;50.790;20.800;2022-07-21T04:12:02;10.38;;;6.80;;
40705;SDS011;35790;50.790;20.800;2022-07-21T04:14:49;7.37;;;5.97;;
40705;SDS011;35790;50.790;20.800;2022-07-21T04:17:37;9.88;;;6.90;;
40705;SDS011;35790;50.790;20.800;2022-07-21T04:20:25;8.10;;;6.03;;
40705;SDS011;35790;50.790;20.800;2022-07-21T04:23:12;10.08;;;6.42;;
40705;SDS011;35790;50.790;20.800;2022-07-21T04:25:59;10.98;;;5.97;;
40705;SDS011;35790;50.790;20.800;2022-07-21T04:28:49;8.10;;;6.30;;
40705;SDS011;35790;50.790;20.800;2022-07-21T04:31:38;13.50;;;7.80;;
40705;SDS011;35790;50.790;20.800;2022-07-21T04:34:25;10.72;;;6.42;;
40705;SDS011;35790;50.790;20.800;2022-07-21T04:37:13;10.58;;;6.45;;
40705;SDS011;35790;50.790;20.800;2022-07-21T04:40:02;9.13;;;6.67;;
40705;SDS011;35790;50.790;20.800;2022-07-21T04:42:51;11.33;;;6.30;;
40705;SDS011;35790;50.790;20.800;2022-07-21T04:45:39;9.68;;;5.42;;
40705;SDS011;35790;50.790;20.800;2022-07-21T04:48:27;8.03;;;5.47;;
40705;SDS011;35790;50.790;20.800;2022-07-21T04:51:14;6.62;;;5.25;;
40705;SDS011;35790;50.790;20.800;2022-07-21T04:54:02;7.65;;;4.62;;
40705;SDS011;35790;50.790;20.800;2022-07-21T04:56:50;10.75;;;5.58;;
40705;SDS011;35790;50.790;20.800;2022-07-21T04:59:37;6.60;;;4.83;;
40705;SDS011;35790;50.790;20.800;2022-07-21T05:02:25;9.38;;;4.97;;
40705;SDS011;35790;50.790;20.800;2022-07-21T05:05:12;6.85;;;5.37;;
40705;SDS011;35790;50.790;20.800;2022-07-21T05:08:00;9.25;;;5.20;;
40705;SDS011;35790;50.790;20.800;2022-07-21T05:10:48;7.67;;;4.72;;
40705;SDS011;35790;50.790;20.800;2022-07-21T05:13:36;5.97;;;4.00;;
40705;SDS011;35790;50.790;20.800;2022-07-21T05:16:24;15.32;;;4.47;;
40705;SDS011;35790;50.790;20.800;2022-07-21T05:19:11;6.12;;;3.80;;
40705;SDS011;35790;50.790;20.800;2022-07-21T05:21:58;8.08;;;4.03;;
40705;SDS011;35790;50.790;20.800;2022-07-21T05:24:47;5.10;;;3.90;;
40705;SDS011;35790;50.790;20.800;2022-07-21T05:27:34;6.05;;;4.22;;
40705;SDS011;35790;50.790;20.800;2022-07-21T05:30:22;3.70;;;2.85;;
40705;SDS011;35790;50.790;20.800;2022-07-21T05:33:09;5.22;;;2.70;;
40705;SDS011;35790;50.790;20.800;2022-07-21T05:35:57;6.28;;;2.35;;
40705;SDS011;35790;50.790;20.800;2022-07-21T05:38:45;5.87;;;2.40;;
40705;SDS011;35790;50.790;20.800;2022-07-21T05:41:32;6.47;;;2.27;;
40705;SDS011;35790;50.790;20.800;2022-07-21T05:44:20;2.25;;;2.00;;
40705;SDS011;35790;50.790;20.800;2022-07-21T05:47:07;7.40;;;2.00;;
40705;SDS011;35790;50.790;20.800;2022-07-21T05:49:54;4.75;;;2.05;;
40705;SDS011;35790;50.790;20.800;2022-07-21T05:52:42;3.83;;;1.87;;
40705;SDS011;35790;50.790;20.800;2022-07-21T05:55:30;3.87;;;2.02;;
40705;SDS011;35790;50.790;20.800;2022-07-21T05:58:17;4.25;;;2.08;;
40705;SDS011;35790;50.790;20.800;2022-07-21T06:01:07;4.85;;;1.87;;
40705;SDS011;35790;50.790;20.800;2022-07-21T06:03:55;2.65;;;1.90;;
40705;SDS011;35790;50.790;20.800;2022-07-21T06:06:43;6.25;;;2.05;;
40705;SDS011;35790;50.790;20.800;2022-07-21T06:09:31;3.50;;;1.77;;
40705;SDS011;35790;50.790;20.800;2022-07-21T06:12:18;4.87;;;1.70;;
40705;SDS011;35790;50.790;20.800;2022-07-21T06:15:06;2.85;;;1.90;;
40705;SDS011;35790;50.790;20.800;2022-07-21T06:17:54;7.90;;;2.05;;
40705;SDS011;35790;50.790;20.800;2022-07-21T06:20:42;3.00;;;1.98;;
40705;SDS011;35790;50.790;20.800;2022-07-21T06:23:29;2.95;;;1.70;;
40705;SDS011;35790;50.790;20.800;2022-07-21T06:26:17;7.05;;;1.90;;
40705;SDS011;35790;50.790;20.800;2022-07-21T06:29:04;3.25;;;1.82;;
40705;SDS011;35790;50.790;20.800;2022-07-21T06:31:52;4.15;;;2.17;;
40705;SDS011;35790;50.790;20.800;2022-07-21T06:34:40;2.70;;;1.70;;
40705;SDS011;35790;50.790;20.800;2022-07-21T06:37:27;3.72;;;1.87;;
40705;SDS011;35790;50.790;20.800;2022-07-21T06:40:14;2.95;;;1.55;;
40705;SDS011;35790;50.790;20.800;2022-07-21T06:43:02;2.90;;;2.00;;
40705;SDS011;35790;50.790;20.800;2022-07-21T06:45:51;3.23;;;2.13;;
40705;SDS011;35790;50.790;20.800;2022-07-21T06:48:39;3.40;;;1.72;;
40705;SDS011;35790;50.790;20.800;2022-07-21T06:51:27;3.12;;;1.85;;
40705;SDS011;35790;50.790;20.800;2022-07-21T06:54:14;4.20;;;2.02;;
40705;SDS011;35790;50.790;20.800;2022-07-21T06:57:02;6.28;;;2.12;;
40705;SDS011;35790;50.790;20.800;2022-07-21T06:59:49;3.20;;;1.57;;
40705;SDS011;35790;50.790;20.800;2022-07-21T07:02:37;5.53;;;1.80;;
40705;SDS011;35790;50.790;20.800;2022-07-21T07:05:24;4.15;;;1.82;;
40705;SDS011;35790;50.790;20.800;2022-07-21T07:08:13;5.97;;;2.08;;
40705;SDS011;35790;50.790;20.800;2022-07-21T07:11:01;2.83;;;2.10;;
40705;SDS011;35790;50.790;20.800;2022-07-21T07:13:49;2.85;;;1.80;;
40705;SDS011;35790;50.790;20.800;2022-07-21T07:16:38;3.47;;;2.00;;
40705;SDS011;35790;50.790;20.800;2022-07-21T07:19:26;4.37;;;2.10;;
40705;SDS011;35790;50.790;20.800;2022-07-21T07:22:14;2.40;;;1.82;;
40705;SDS011;35790;50.790;20.800;2022-07-21T07:25:02;7.00;;;2.30;;
40705;SDS011;35790;50.790;20.800;2022-07-21T07:27:52;3.50;;;2.00;;
40705;SDS011;35790;50.790;20.800;2022-07-21T07:30:42;5.40;;;2.17;;
40705;SDS011;35790;50.790;20.800;2022-07-21T07:33:29;4.80;;;1.82;;
40705;SDS011;35790;50.790;20.800;2022-07-21T07:36:16;3.90;;;2.17;;
40705;SDS011;35790;50.790;20.800;2022-07-21T07:39:04;5.05;;;1.90;;
40705;SDS011;35790;50.790;20.800;2022-07-21T07:41:53;5.17;;;1.85;;
40705;SDS011;35790;50.790;20.800;2022-07-21T07:44:41;2.70;;;2.05;;
40705;SDS011;35790;50.790;20.800;2022-07-21T07:47:28;3.42;;;2.00;;
40705;SDS011;35790;50.790;20.800;2022-07-21T07:50:16;2.75;;;2.12;;
40705;SDS011;35790;50.790;20.800;2022-07-21T07:53:04;3.95;;;1.90;;
40705;SDS011;35790;50.790;20.800;2022-07-21T07:55:51;4.15;;;2.02;;
40705;SDS011;35790;50.790;20.800;2022-07-21T07:58:38;2.35;;;1.90;;
40705;SDS011;35790;50.790;20.800;2022-07-21T08:01:26;3.62;;;1.87;;
40705;SDS011;35790;50.790;20.800;2022-07-21T08:04:13;3.90;;;1.98;;
40705;SDS011;35790;50.790;20.800;2022-07-21T08:07:02;3.92;;;2.22;;
40705;SDS011;35790;50.790;20.800;2022-07-21T08:09:51;3.27;;;1.92;;
40705;SDS011;35790;50.790;20.800;2022-07-21T08:12:40;5.17;;;1.95;;
40705;SDS011;35790;50.790;20.800;2022-07-21T08:15:28;4.72;;;2.17;;
40705;SDS011;35790;50.790;20.800;2022-07-21T08:18:16;4.58;;;1.85;;
40705;SDS011;35790;50.790;20.800;2022-07-21T08:21:04;3.70;;;1.67;;
40705;SDS011;35790;50.790;20.800;2022-07-21T08:23:51;2.17;;;1.98;;
40705;SDS011;35790;50.790;20.800;2022-07-21T08:26:40;3.10;;;1.98;;
40705;SDS011;35790;50.790;20.800;2022-07-21T08:29:30;2.85;;;1.85;;
40705;SDS011;35790;50.790;20.800;2022-07-21T08:32:17;2.65;;;1.90;;
40705;SDS011;35790;50.790;20.800;2022-07-21T08:35:05;2.45;;;1.92;;
40705;SDS011;35790;50.790;20.800;2022-07-21T08:37:55;4.20;;;2.15;;
40705;SDS011;35790;50.790;20.800;2022-07-21T08:40:45;7.97;;;1.90;;
40705;SDS011;35790;50.790;20.800;2022-07-21T08:43:33;5.58;;;1.90;;
40705;SDS011;35790;50.790;20.800;2022-07-21T08:46:21;6.85;;;2.20;;
40705;SDS011;35790;50.790;20.800;2022-07-21T08:49:10;4.85;;;1.80;;
40705;SDS011;35790;50.790;20.800;2022-07-21T08:51:58;5.08;;;2.10;;
40705;SDS011;35790;50.790;20.800;2022-07-21T08:54:45;3.08;;;1.72;;
40705;SDS011;35790;50.790;20.800;2022-07-21T08:57:33;3.08;;;1.60;;
40705;SDS011;35790;50.790;20.800;2022-07-21T09:00:20;3.45;;;1.60;;
40705;SDS011;35790;50.790;20.800;2022-07-21T09:03:08;3.92;;;1.90;;
40705;SDS011;35790;50.790;20.800;2022-07-21T09:06:04;6.37;;;2.08;;
40705;SDS011;35790;50.790;20.800;2022-07-21T09:08:53;3.27;;;2.00;;
40705;SDS011;35790;50.790;20.800;2022-07-21T09:11:43;2.77;;;1.70;;
40705;SDS011;35790;50.790;20.800;2022-07-21T09:14:32;3.35;;;2.00;;
40705;SDS011;35790;50.790;20.800;2022-07-21T09:17:20;6.25;;;2.05;;
40705;SDS011;35790;50.790;20.800;2022-07-21T09:20:22;2.57;;;2.00;;
40705;SDS011;35790;50.790;20.800;2022-07-21T09:23:11;2.83;;;1.80;;
40705;SDS011;35790;50.790;20.800;2022-07-21T09:26:00;3.55;;;2.00;;
40705;SDS011;35790;50.790;20.800;2022-07-21T09:28:48;3.62;;;2.05;;
40705;SDS011;35790;50.790;20.800;2022-07-21T09:31:37;4.87;;;1.95;;
40705;SDS011;35790;50.790;20.800;2022-07-21T09:34:24;3.08;;;1.90;;
40705;SDS011;35790;50.790;20.800;2022-07-21T09:37:11;4.03;;;2.00;;
40705;SDS011;35790;50.790;20.800;2022-07-21T09:40:00;7.22;;;2.02;;
40705;SDS011;35790;50.790;20.800;2022-07-21T09:42:51;2.00;;;1.75;;
40705;SDS011;35790;50.790;20.800;2022-07-21T09:45:39;6.60;;;2.10;;
40705;SDS011;35790;50.790;20.800;2022-07-21T09:48:30;3.90;;;1.75;;
40705;SDS011;35790;50.790;20.800;2022-07-21T09:54:19;2.90;;;1.72;;
40705;SDS011;35790;50.790;20.800;2022-07-21T09:57:06;3.33;;;1.98;;
40705;SDS011;35790;50.790;20.800;2022-07-21T09:59:54;1.92;;;1.72;;
40705;SDS011;35790;50.790;20.800;2022-07-21T10:05:31;4.25;;;1.90;;
40705;SDS011;35790;50.790;20.800;2022-07-21T10:08:18;3.77;;;2.00;;
40705;SDS011;35790;50.790;20.800;2022-07-21T10:11:07;2.75;;;1.60;;
40705;SDS011;35790;50.790;20.800;2022-07-21T10:13:57;3.70;;;1.70;;
40705;SDS011;35790;50.790;20.800;2022-07-21T10:16:45;7.00;;;2.22;;
40705;SDS011;35790;50.790;20.800;2022-07-21T10:19:39;3.92;;;1.67;;
40705;SDS011;35790;50.790;20.800;2022-07-21T10:25:29;2.47;;;1.65;;
40705;SDS011;35790;50.790;20.800;2022-07-21T10:28:18;4.47;;;1.80;;
40705;SDS011;35790;50.790;20.800;2022-07-21T10:34:05;3.42;;;1.90;;
40705;SDS011;35790;50.790;20.800;2022-07-21T10:36:52;4.12;;;1.90;;
40705;SDS011;35790;50.790;20.800;2022-07-21T10:39:40;4.35;;;1.80;;
40705;SDS011;35790;50.790;20.800;2022-07-21T10:42:28;6.10;;;1.77;;
40705;SDS011;35790;50.790;20.800;2022-07-21T10:45:31;2.20;;;1.47;;
40705;SDS011;35790;50.790;20.800;2022-07-21T10:51:25;4.75;;;1.90;;
40705;SDS011;35790;50.790;20.800;2022-07-21T10:54:17;1.57;;;1.42;;
40705;SDS011;35790;50.790;20.800;2022-07-21T11:00:17;5.95;;;1.50;;
40705;SDS011;35790;50.790;20.800;2022-07-21T11:03:23;3.83;;;1.35;;
40705;SDS011;35790;50.790;20.800;2022-07-21T11:06:20;6.87;;;1.70;;
40705;SDS011;35790;50.790;20.800;2022-07-21T11:09:14;2.67;;;1.10;;
40705;SDS011;35790;50.790;20.800;2022-07-21T11:12:02;1.40;;;1.15;;
40705;SDS011;35790;50.790;20.800;2022-07-21T11:14:51;1.90;;;1.50;;
40705;SDS011;35790;50.790;20.800;2022-07-21T11:17:38;2.10;;;1.30;;
40705;SDS011;35790;50.790;20.800;2022-07-21T11:20:27;5.55;;;1.55;;
40705;SDS011;35790;50.790;20.800;2022-07-21T11:23:14;2.90;;;1.15;;
40705;SDS011;35790;50.790;20.800;2022-07-21T11:26:02;3.70;;;1.40;;
40705;SDS011;35790;50.790;20.800;2022-07-21T11:29:02;3.95;;;1.27;;
40705;SDS011;35790;50.790;20.800;2022-07-21T11:31:51;3.62;;;1.40;;
40705;SDS011;35790;50.790;20.800;2022-07-21T11:34:40;8.28;;;1.30;;
40705;SDS011;35790;50.790;20.800;2022-07-21T11:37:36;3.12;;;1.37;;
40705;SDS011;35790;50.790;20.800;2022-07-21T11:40:27;4.22;;;1.20;;
40705;SDS011;35790;50.790;20.800;2022-07-21T11:43:14;1.23;;;1.00;;
40705;SDS011;35790;50.790;20.800;2022-07-21T11:46:02;2.65;;;1.40;;
40705;SDS011;35790;50.790;20.800;2022-07-21T11:49:00;5.83;;;1.60;;
40705;SDS011;35790;50.790;20.800;2022-07-21T11:51:52;5.87;;;2.02;;
40705;SDS011;35790;50.790;20.800;2022-07-21T11:54:45;3.20;;;1.35;;
40705;SDS011;35790;50.790;20.800;2022-07-21T11:57:33;3.55;;;1.37;;
40705;SDS011;35790;50.790;20.800;2022-07-21T12:00:24;3.47;;;1.35;;
40705;SDS011;35790;50.790;20.800;2022-07-21T12:03:11;3.80;;;1.40;;
40705;SDS011;35790;50.790;20.800;2022-07-21T12:06:00;2.37;;;1.25;;
40705;SDS011;35790;50.790;20.800;2022-07-21T12:08:48;1.67;;;1.22;;
40705;SDS011;35790;50.790;20.800;2022-07-21T12:11:35;3.65;;;1.35;;
40705;SDS011;35790;50.790;20.800;2022-07-21T12:14:39;3.30;;;1.20;;
40705;SDS011;35790;50.790;20.800;2022-07-21T12:17:32;4.87;;;1.60;;
40705;SDS011;35790;50.790;20.800;2022-07-21T12:23:18;4.42;;;1.45;;
40705;SDS011;35790;50.790;20.800;2022-07-21T12:26:21;3.47;;;1.20;;
40705;SDS011;35790;50.790;20.800;2022-07-21T12:29:09;5.03;;;1.15;;
40705;SDS011;35790;50.790;20.800;2022-07-21T12:31:56;3.65;;;1.37;;
40705;SDS011;35790;50.790;20.800;2022-07-21T12:34:48;1.87;;;1.12;;
40705;SDS011;35790;50.790;20.800;2022-07-21T12:37:53;2.98;;;1.30;;
40705;SDS011;35790;50.790;20.800;2022-07-21T12:40:46;1.20;;;1.10;;
40705;SDS011;35790;50.790;20.800;2022-07-21T12:43:35;2.95;;;1.50;;
40705;SDS011;35790;50.790;20.800;2022-07-21T12:46:28;5.17;;;1.50;;
40705;SDS011;35790;50.790;20.800;2022-07-21T12:49:16;3.92;;;1.55;;
40705;SDS011;35790;50.790;20.800;2022-07-21T12:52:03;2.85;;;1.30;;
40705;SDS011;35790;50.790;20.800;2022-07-21T12:54:52;4.10;;;1.55;;
40705;SDS011;35790;50.790;20.800;2022-07-21T12:57:40;2.10;;;1.30;;
40705;SDS011;35790;50.790;20.800;2022-07-21T13:00:27;3.35;;;1.27;;
40705;SDS011;35790;50.790;20.800;2022-07-21T13:03:15;3.98;;;1.17;;
40705;SDS011;35790;50.790;20.800;2022-07-21T13:06:03;4.03;;;1.27;;
40705;SDS011;35790;50.790;20.800;2022-07-21T13:08:52;4.22;;;1.00;;
40705;SDS011;35790;50.790;20.800;2022-07-21T13:11:41;7.50;;;1.40;;
40705;SDS011;35790;50.790;20.800;2022-07-21T13:14:28;3.67;;;1.00;;
40705;SDS011;35790;50.790;20.800;2022-07-21T13:17:19;5.20;;;1.30;;
40705;SDS011;35790;50.790;20.800;2022-07-21T13:20:06;1.65;;;1.37;;
40705;SDS011;35790;50.790;20.800;2022-07-21T13:22:55;2.70;;;1.10;;
40705;SDS011;35790;50.790;20.800;2022-07-21T13:25:43;5.42;;;1.45;;
40705;SDS011;35790;50.790;20.800;2022-07-21T13:28:35;3.00;;;1.30;;
40705;SDS011;35790;50.790;20.800;2022-07-21T13:31:24;4.87;;;1.10;;
40705;SDS011;35790;50.790;20.800;2022-07-21T13:34:12;4.58;;;1.60;;
40705;SDS011;35790;50.790;20.800;2022-07-21T13:37:01;3.62;;;1.57;;
40705;SDS011;35790;50.790;20.800;2022-07-21T13:39:50;4.03;;;1.30;;
40705;SDS011;35790;50.790;20.800;2022-07-21T13:42:39;2.37;;;1.60;;
40705;SDS011;35790;50.790;20.800;2022-07-21T13:45:28;4.50;;;1.40;;
40705;SDS011;35790;50.790;20.800;2022-07-21T13:48:16;5.95;;;1.40;;
40705;SDS011;35790;50.790;20.800;2022-07-21T13:51:03;3.77;;;1.25;;
40705;SDS011;35790;50.790;20.800;2022-07-21T13:53:51;2.47;;;1.40;;
40705;SDS011;35790;50.790;20.800;2022-07-21T13:56:40;3.62;;;1.25;;
40705;SDS011;35790;50.790;20.800;2022-07-21T13:59:27;3.47;;;1.30;;
40705;SDS011;35790;50.790;20.800;2022-07-21T14:02:15;5.47;;;1.10;;
40705;SDS011;35790;50.790;20.800;2022-07-21T14:05:02;2.65;;;1.20;;
40705;SDS011;35790;50.790;20.800;2022-07-21T14:07:50;2.70;;;1.10;;
40705;SDS011;35790;50.790;20.800;2022-07-21T14:17:13;5.17;;;1.25;;
40705;SDS011;35790;50.790;20.800;2022-07-21T14:20:02;3.72;;;1.00;;
40705;SDS011;35790;50.790;20.800;2022-07-21T14:22:50;8.48;;;1.50;;
40705;SDS011;35790;50.790;20.800;2022-07-21T14:25:38;5.28;;;1.40;;
40705;SDS011;35790;50.790;20.800;2022-07-21T14:28:25;3.12;;;1.20;;
40705;SDS011;35790;50.790;20.800;2022-07-21T14:31:12;3.20;;;1.10;;
40705;SDS011;35790;50.790;20.800;2022-07-21T14:34:00;3.80;;;1.20;;
40705;SDS011;35790;50.790;20.800;2022-07-21T14:36:48;4.40;;;1.40;;
40705;SDS011;35790;50.790;20.800;2022-07-21T14:39:36;3.98;;;1.60;;
40705;SDS011;35790;50.790;20.800;2022-07-21T14:42:24;2.47;;;1.27;;
40705;SDS011;35790;50.790;20.800;2022-07-21T14:45:11;3.80;;;1.15;;
40705;SDS011;35790;50.790;20.800;2022-07-21T14:48:03;2.92;;;1.37;;
40705;SDS011;35790;50.790;20.800;2022-07-21T14:50:52;5.47;;;1.30;;
40705;SDS011;35790;50.790;20.800;2022-07-21T14:53:39;5.65;;;1.30;;
40705;SDS011;35790;50.790;20.800;2022-07-21T14:56:28;2.52;;;1.12;;
40705;SDS011;35790;50.790;20.800;2022-07-21T14:59:17;4.55;;;1.20;;
40705;SDS011;35790;50.790;20.800;2022-07-21T15:02:04;2.73;;;1.10;;
40705;SDS011;35790;50.790;20.800;2022-07-21T15:04:54;3.70;;;1.00;;
40705;SDS011;35790;50.790;20.800;2022-07-21T15:07:41;2.95;;;1.37;;
40705;SDS011;35790;50.790;20.800;2022-07-21T15:10:29;4.47;;;1.32;;
40705;SDS011;35790;50.790;20.800;2022-07-21T15:13:16;3.83;;;1.20;;
40705;SDS011;35790;50.790;20.800;2022-07-21T15:16:04;4.00;;;1.20;;
40705;SDS011;35790;50.790;20.800;2022-07-21T15:18:52;3.47;;;1.40;;
40705;SDS011;35790;50.790;20.800;2022-07-21T15:21:39;3.87;;;1.80;;
40705;SDS011;35790;50.790;20.800;2022-07-21T15:24:27;3.10;;;1.50;;
40705;SDS011;35790;50.790;20.800;2022-07-21T15:27:14;3.52;;;1.50;;
40705;SDS011;35790;50.790;20.800;2022-07-21T15:30:02;3.85;;;1.65;;
40705;SDS011;35790;50.790;20.800;2022-07-21T15:32:51;3.92;;;1.50;;
40705;SDS011;35790;50.790;20.800;2022-07-21T15:35:38;3.33;;;1.32;;
40705;SDS011;35790;50.790;20.800;2022-07-21T15:38:25;7.50;;;1.42;;
40705;SDS011;35790;50.790;20.800;2022-07-21T15:41:13;3.35;;;1.30;;
40705;SDS011;35790;50.790;20.800;2022-07-21T15:44:03;3.27;;;1.60;;
40705;SDS011;35790;50.790;20.800;2022-07-21T15:49:38;3.12;;;1.30;;
40705;SDS011;35790;50.790;20.800;2022-07-21T15:52:26;6.63;;;1.30;;
40705;SDS011;35790;50.790;20.800;2022-07-21T15:55:14;2.60;;;1.15;;
40705;SDS011;35790;50.790;20.800;2022-07-21T15:58:03;6.60;;;1.42;;
40705;SDS011;35790;50.790;20.800;2022-07-21T16:00:50;6.45;;;1.85;;
40705;SDS011;35790;50.790;20.800;2022-07-21T16:03:37;5.05;;;1.40;;
40705;SDS011;35790;50.790;20.800;2022-07-21T16:06:25;5.72;;;1.80;;
40705;SDS011;35790;50.790;20.800;2022-07-21T16:09:12;5.67;;;1.52;;
40705;SDS011;35790;50.790;20.800;2022-07-21T16:11:59;5.37;;;1.47;;
40705;SDS011;35790;50.790;20.800;2022-07-21T16:14:47;3.40;;;1.50;;
40705;SDS011;35790;50.790;20.800;2022-07-21T16:17:35;3.60;;;1.27;;
40705;SDS011;35790;50.790;20.800;2022-07-21T16:20:22;5.03;;;1.50;;
40705;SDS011;35790;50.790;20.800;2022-07-21T16:23:11;3.85;;;1.42;;
40705;SDS011;35790;50.790;20.800;2022-07-21T16:25:58;5.72;;;1.40;;
40705;SDS011;35790;50.790;20.800;2022-07-21T16:28:46;4.28;;;1.90;;
40705;SDS011;35790;50.790;20.800;2022-07-21T16:31:35;4.17;;;1.40;;
40705;SDS011;35790;50.790;20.800;2022-07-21T16:34:23;4.72;;;1.70;;
40705;SDS011;35790;50.790;20.800;2022-07-21T16:37:11;3.47;;;1.60;;
40705;SDS011;35790;50.790;20.800;2022-07-21T16:40:00;6.30;;;1.60;;
40705;SDS011;35790;50.790;20.800;2022-07-21T16:42:49;3.90;;;1.62;;
40705;SDS011;35790;50.790;20.800;2022-07-21T16:45:39;7.70;;;1.95;;
40705;SDS011;35790;50.790;20.800;2022-07-21T16:48:27;9.90;;;1.62;;
40705;SDS011;35790;50.790;20.800;2022-07-21T16:51:15;7.20;;;1.82;;
40705;SDS011;35790;50.790;20.800;2022-07-21T16:54:05;5.78;;;1.90;;
40705;SDS011;35790;50.790;20.800;2022-07-21T16:57:00;6.33;;;1.70;;
40705;SDS011;35790;50.790;20.800;2022-07-21T16:59:47;6.60;;;1.90;;
40705;SDS011;35790;50.790;20.800;2022-07-21T17:02:34;9.35;;;2.02;;
40705;SDS011;35790;50.790;20.800;2022-07-21T17:05:22;3.60;;;1.82;;
40705;SDS011;35790;50.790;20.800;2022-07-21T17:08:10;4.42;;;1.85;;
40705;SDS011;35790;50.790;20.800;2022-07-21T17:10:57;4.97;;;2.10;;